createdAt,value
2022-09-11T00:02:07.147Z,38.73
2022-09-11T00:04:55.371Z,34.40
2022-09-11T00:07:42.294Z,33.03
2022-09-11T00:10:29.346Z,36.67
2022-09-11T00:13:21.500Z,33.30
2022-09-11T00:16:27.676Z,37.80
2022-09-11T00:19:19.055Z,40.83
2022-09-11T00:22:06.231Z,47.93
2022-09-11T00:24:53.307Z,46.53
2022-09-11T00:27:40.564Z,42.07
2022-09-11T00:30:28.377Z,43.60
2022-09-11T00:33:16.331Z,40.50
2022-09-11T00:36:10.770Z,42.67
2022-09-11T00:38:59.042Z,47.37
2022-09-11T00:41:46.554Z,41.23
2022-09-11T00:44:33.514Z,39.50
2022-09-11T00:47:20.693Z,37.23
2022-09-11T00:50:19.441Z,40.60
2022-09-11T00:53:10.163Z,43.13
2022-09-11T00:56:01.483Z,41.30
2022-09-11T00:58:51.023Z,40.00
2022-09-11T01:01:38.230Z,45.83
2022-09-11T01:04:25.667Z,42.10
2022-09-11T01:07:15.507Z,44.97
2022-09-11T01:10:07.121Z,49.10
2022-09-11T01:13:10.756Z,55.73
2022-09-11T01:16:13.106Z,50.00
2022-09-11T01:19:27.463Z,46.53
2022-09-11T01:22:33.233Z,51.03
2022-09-11T01:25:46.857Z,49.33
2022-09-11T01:28:44.311Z,42.60
2022-09-11T01:31:38.237Z,49.60
2022-09-11T01:34:38.102Z,45.93
2022-09-11T01:37:40.097Z,51.37
2022-09-11T01:40:39.494Z,56.07
2022-09-11T01:43:34.512Z,57.67
2022-09-11T01:46:23.798Z,54.43
2022-09-11T01:49:19.775Z,69.27
2022-09-11T01:52:10.771Z,66.40
2022-09-11T01:55:09.574Z,72.17
2022-09-11T01:58:03.314Z,65.30
2022-09-11T02:00:55.606Z,85.13
2022-09-11T02:03:51.762Z,82.03
2022-09-11T02:06:47.281Z,65.63
2022-09-11T02:09:57.586Z,110.70
2022-09-11T02:13:00.536Z,84.10
2022-09-11T02:15:55.674Z,79.97
2022-09-11T02:18:51.753Z,81.00
2022-09-11T02:21:39.251Z,82.97
2022-09-11T02:24:27.642Z,79.33
2022-09-11T02:27:19.550Z,102.33
2022-09-11T02:30:07.822Z,67.50
2022-09-11T02:32:55.785Z,107.47
2022-09-11T02:35:50.306Z,98.37
2022-09-11T02:38:53.293Z,83.27
2022-09-11T02:41:43.136Z,134.57
2022-09-11T02:44:40.455Z,99.13
2022-09-11T02:47:52.632Z,89.57
2022-09-11T02:50:45.613Z,80.77
2022-09-11T02:54:02.324Z,85.37
2022-09-11T02:56:58.990Z,78.77
2022-09-11T02:59:54.160Z,95.13
2022-09-11T03:02:43.392Z,90.23
2022-09-11T03:05:30.306Z,73.93
2022-09-11T03:08:17.572Z,89.77
2022-09-11T03:11:04.674Z,103.40
2022-09-11T03:13:52.186Z,88.43
2022-09-11T03:16:39.172Z,84.90
2022-09-11T03:19:26.258Z,97.97
2022-09-11T03:22:14.822Z,94.70
2022-09-11T03:25:02.254Z,89.47
2022-09-11T03:27:49.918Z,84.10
2022-09-11T03:30:37.186Z,73.30
2022-09-11T03:33:24.364Z,103.10
2022-09-11T03:36:12.870Z,88.43
2022-09-11T03:39:00.787Z,112.13
2022-09-11T03:41:47.801Z,83.83
2022-09-11T03:44:34.737Z,113.00
2022-09-11T03:47:22.353Z,120.73
2022-09-11T03:50:10.245Z,110.00
2022-09-11T03:52:58.298Z,160.30
2022-09-11T03:55:46.454Z,114.80
2022-09-11T03:58:33.609Z,130.83
2022-09-11T04:01:20.826Z,103.37
2022-09-11T04:04:08.578Z,77.20
2022-09-11T04:06:56.776Z,81.23
2022-09-11T04:09:43.788Z,75.83
2022-09-11T04:12:30.742Z,87.47
2022-09-11T04:15:18.661Z,96.33
2022-09-11T04:18:07.454Z,67.23
2022-09-11T04:20:54.570Z,81.13
2022-09-11T04:23:42.180Z,107.63
2022-09-11T04:26:32.033Z,92.83
2022-09-11T04:29:19.211Z,103.53
2022-09-11T04:32:06.225Z,78.63
2022-09-11T04:34:53.419Z,79.60
2022-09-11T04:37:41.007Z,85.93
2022-09-11T04:40:27.985Z,87.80
2022-09-11T04:43:16.242Z,94.93
2022-09-11T04:46:04.933Z,89.77
2022-09-11T04:48:55.613Z,116.73
2022-09-11T04:51:43.801Z,94.27
2022-09-11T04:54:30.746Z,79.50
2022-09-11T04:57:17.810Z,84.80
2022-09-11T05:00:06.984Z,72.83
2022-09-11T05:02:54.832Z,74.67
2022-09-11T05:05:41.838Z,76.80
2022-09-11T05:08:28.800Z,80.70
2022-09-11T05:11:17.781Z,82.57
2022-09-11T05:14:05.051Z,76.37
2022-09-11T05:16:53.018Z,76.23
2022-09-11T05:19:40.753Z,81.53
2022-09-11T05:22:27.715Z,77.50
2022-09-11T05:25:14.749Z,78.27
2022-09-11T05:28:01.925Z,73.63
2022-09-11T05:30:48.910Z,85.77
2022-09-11T05:33:35.895Z,78.80
2022-09-11T05:36:24.185Z,84.27
2022-09-11T05:39:11.150Z,87.63
2022-09-11T05:41:58.322Z,81.40
2022-09-11T05:44:47.803Z,86.43
2022-09-11T05:47:34.808Z,82.07
2022-09-11T05:50:22.178Z,79.63
2022-09-11T05:53:09.355Z,78.00
2022-09-11T05:55:56.653Z,78.57
2022-09-11T05:58:46.212Z,87.87
2022-09-11T06:01:33.167Z,85.80
2022-09-11T06:04:20.943Z,83.97
2022-09-11T06:07:07.850Z,83.03
2022-09-11T06:09:55.833Z,83.07
2022-09-11T06:12:45.445Z,80.47
2022-09-11T06:15:46.297Z,83.63
2022-09-11T06:18:33.689Z,87.60
2022-09-11T06:21:22.717Z,79.43
2022-09-11T06:24:10.042Z,76.40
2022-09-11T06:26:56.956Z,71.93
2022-09-11T06:29:47.298Z,78.87
2022-09-11T06:32:34.285Z,75.20
2022-09-11T06:35:21.495Z,77.43
2022-09-11T06:38:08.753Z,72.90
2022-09-11T06:40:56.759Z,75.93
2022-09-11T06:43:44.466Z,75.00
2022-09-11T06:46:31.555Z,62.23
2022-09-11T06:49:18.816Z,61.07
2022-09-11T06:52:06.137Z,66.57
2022-09-11T06:54:53.418Z,64.07
2022-09-11T06:57:42.208Z,62.07
2022-09-11T07:03:05.604Z,69.33
2022-09-11T07:05:52.610Z,66.87
2022-09-11T07:08:39.600Z,67.70
2022-09-11T07:11:28.131Z,66.10
2022-09-11T07:14:15.048Z,62.83
2022-09-11T07:17:02.889Z,66.80
2022-09-11T07:19:49.918Z,65.63
2022-09-11T07:22:36.974Z,61.73
2022-09-11T07:25:24.275Z,55.43
2022-09-11T07:28:12.285Z,63.07
2022-09-11T07:31:16.383Z,65.33
2022-09-11T07:34:07.066Z,65.77
2022-09-11T07:36:55.540Z,59.83
2022-09-11T07:39:42.527Z,62.03
2022-09-11T07:42:29.749Z,62.13
2022-09-11T07:45:22.072Z,58.53
2022-09-11T07:48:10.057Z,69.67
2022-09-11T07:50:58.295Z,66.13
2022-09-11T07:53:47.423Z,61.87
2022-09-11T07:56:36.183Z,59.37
2022-09-11T07:59:23.206Z,57.87
2022-09-11T08:02:11.775Z,61.40
2022-09-11T08:04:59.254Z,56.13
2022-09-11T08:07:46.724Z,57.90
2022-09-11T08:10:40.942Z,56.53
2022-09-11T08:13:27.969Z,56.73
2022-09-11T08:16:14.925Z,55.40
2022-09-11T08:19:02.934Z,54.03
2022-09-11T08:21:51.181Z,51.40
2022-09-11T08:24:38.565Z,55.37
2022-09-11T08:27:25.781Z,54.60
2022-09-11T08:30:13.510Z,54.43
2022-09-11T08:33:01.464Z,54.30
2022-09-11T08:35:49.017Z,49.90
2022-09-11T08:38:39.508Z,44.40
2022-09-11T08:41:36.597Z,38.40
2022-09-11T08:44:47.798Z,41.43
2022-09-11T08:47:36.990Z,45.43
2022-09-11T08:50:40.777Z,47.57
2022-09-11T08:53:30.818Z,45.23
2022-09-11T08:56:22.490Z,46.40
2022-09-11T08:59:21.470Z,48.77
2022-09-11T09:02:33.382Z,43.13
2022-09-11T09:05:46.026Z,46.10
2022-09-11T09:09:03.965Z,44.60
2022-09-11T09:11:57.207Z,40.27
2022-09-11T09:14:51.873Z,42.07
2022-09-11T09:18:06.212Z,40.97
2022-09-11T09:21:21.453Z,38.67
2022-09-11T09:24:19.448Z,40.47
2022-09-11T09:27:07.722Z,41.33
2022-09-11T09:29:55.972Z,42.60
2022-09-11T09:33:17.193Z,38.70
2022-09-11T09:36:25.127Z,37.57
2022-09-11T09:39:17.751Z,37.20
2022-09-11T09:42:42.156Z,34.30
2022-09-11T09:45:50.305Z,32.50
2022-09-11T09:48:39.872Z,33.50
2022-09-11T09:51:27.260Z,33.97
2022-09-11T09:54:16.888Z,30.77
2022-09-11T09:57:12.146Z,29.10
2022-09-11T10:00:05.651Z,35.03
2022-09-11T10:02:58.154Z,34.57
2022-09-11T10:05:45.621Z,35.60
2022-09-11T10:08:36.706Z,35.53
2022-09-11T10:11:29.026Z,31.37
2022-09-11T10:14:49.305Z,30.33
2022-09-11T10:17:29.552Z,32.37
2022-09-11T10:20:19.306Z,28.13
2022-09-11T10:23:23.659Z,33.57
2022-09-11T10:26:18.712Z,28.47
2022-09-11T10:29:14.935Z,32.80
2022-09-11T10:32:03.001Z,32.00
2022-09-11T10:34:51.354Z,34.57
2022-09-11T10:37:39.241Z,38.70
2022-09-11T10:40:26.302Z,37.93
2022-09-11T10:43:25.799Z,41.13
2022-09-11T10:46:18.861Z,38.90
2022-09-11T10:49:05.906Z,37.67
2022-09-11T10:52:02.180Z,37.13
2022-09-11T10:55:07.691Z,37.40
2022-09-11T10:57:59.365Z,37.17
2022-09-11T11:00:47.880Z,37.63
2022-09-11T11:03:35.277Z,37.63
2022-09-11T11:06:53.585Z,37.60
2022-09-11T11:10:01.294Z,33.40
2022-09-11T11:13:26.458Z,34.73
2022-09-11T11:16:23.271Z,30.53
2022-09-11T11:19:38.750Z,31.93
2022-09-11T11:22:50.545Z,31.17
2022-09-11T11:26:12.698Z,31.57
2022-09-11T11:29:08.366Z,33.73
2022-09-11T11:32:36.776Z,25.97
2022-09-11T11:35:28.501Z,25.17
2022-09-11T11:38:29.243Z,25.40
2022-09-11T11:41:24.081Z,23.00
2022-09-11T11:44:15.931Z,23.50
2022-09-11T11:47:06.906Z,22.47
2022-09-11T11:50:11.569Z,22.00
2022-09-11T11:53:24.985Z,19.63
2022-09-11T11:56:25.905Z,21.67
2022-09-11T11:59:35.100Z,17.37
2022-09-11T12:02:45.566Z,15.70
2022-09-11T12:05:34.343Z,15.37
2022-09-11T12:08:22.223Z,17.70
2022-09-11T12:11:12.927Z,13.90
2022-09-11T12:14:00.614Z,15.83
2022-09-11T12:16:48.581Z,15.33
2022-09-11T12:19:35.538Z,14.30
2022-09-11T12:22:34.462Z,11.73
2022-09-11T12:25:21.435Z,14.90
2022-09-11T12:28:26.040Z,14.80
2022-09-11T12:31:18.002Z,12.43
2022-09-11T12:34:25.060Z,14.40
2022-09-11T12:37:20.323Z,11.60
2022-09-11T12:40:23.263Z,12.90
2022-09-11T12:43:19.314Z,13.27
2022-09-11T12:46:29.844Z,12.40
2022-09-11T12:49:22.961Z,12.07
2022-09-11T12:52:24.961Z,11.87
2022-09-11T12:55:33.339Z,9.83
2022-09-11T12:58:20.218Z,12.80
2022-09-11T13:01:36.115Z,9.47
2022-09-11T13:04:27.233Z,11.37
2022-09-11T13:07:41.685Z,11.67
2022-09-11T13:10:38.103Z,22.30
2022-09-11T13:13:40.437Z,19.60
2022-09-11T13:16:31.370Z,33.30
2022-09-11T13:19:21.827Z,31.00
2022-09-11T13:22:27.733Z,29.53
2022-09-11T13:25:22.993Z,29.47
2022-09-11T13:28:21.381Z,31.00
2022-09-11T13:31:25.026Z,32.80
2022-09-11T13:34:17.322Z,28.57
2022-09-11T13:37:11.643Z,32.57
2022-09-11T13:40:00.653Z,29.23
2022-09-11T13:42:49.005Z,28.70
2022-09-11T13:45:36.017Z,26.47
2022-09-11T13:48:24.263Z,30.33
2022-09-11T13:51:19.527Z,26.73
2022-09-11T13:54:15.306Z,31.50
2022-09-11T13:57:03.279Z,25.93
2022-09-11T13:59:55.063Z,26.70
2022-09-11T14:02:50.434Z,28.13
2022-09-11T14:05:37.433Z,26.50
2022-09-11T14:08:35.488Z,26.30
2022-09-11T14:11:29.494Z,24.27
2022-09-11T14:14:27.015Z,23.00
2022-09-11T14:17:14.706Z,20.37
2022-09-11T14:20:02.918Z,20.60
2022-09-11T14:22:55.530Z,20.30
2022-09-11T14:26:03.886Z,19.90
2022-09-11T14:28:58.150Z,18.63
2022-09-11T14:31:47.443Z,18.03
2022-09-11T14:34:34.426Z,19.20
2022-09-11T14:37:22.800Z,16.73
2022-09-11T14:40:18.214Z,18.10
2022-09-11T14:43:05.839Z,18.73
2022-09-11T14:45:54.647Z,18.30
2022-09-11T14:48:44.090Z,19.27
2022-09-11T14:51:31.089Z,16.77
2022-09-11T14:54:20.662Z,15.80
2022-09-11T14:57:23.173Z,23.63
2022-09-11T15:00:13.967Z,17.73
2022-09-11T15:03:00.982Z,20.40
2022-09-11T15:05:57.698Z,20.10
2022-09-11T15:08:46.023Z,19.50
2022-09-11T15:11:37.397Z,19.57
2022-09-11T15:14:52.338Z,17.17
2022-09-11T15:17:36.199Z,18.53
2022-09-11T15:20:25.481Z,20.67
2022-09-11T15:23:12.669Z,18.60
2022-09-11T15:26:03.441Z,17.23
2022-09-11T15:28:51.801Z,15.90
2022-09-11T15:31:39.259Z,17.27
2022-09-11T15:34:27.332Z,18.03
2022-09-11T15:37:17.015Z,17.60
2022-09-11T15:40:04.532Z,16.13
2022-09-11T15:42:52.042Z,17.83
2022-09-11T15:45:42.674Z,17.53
2022-09-11T15:48:31.053Z,15.93
2022-09-11T15:51:20.828Z,16.07
2022-09-11T15:54:07.821Z,16.10
2022-09-11T15:56:55.126Z,11.50
2022-09-11T15:59:42.126Z,12.60
2022-09-11T16:02:29.129Z,13.03
2022-09-11T16:05:16.351Z,13.47
2022-09-11T16:08:03.555Z,11.90
2022-09-11T16:10:51.334Z,14.20
2022-09-11T16:13:40.708Z,15.07
2022-09-11T16:16:28.035Z,13.70
2022-09-11T16:19:19.386Z,11.13
2022-09-11T16:22:07.302Z,13.13
2022-09-11T16:24:54.569Z,13.43
2022-09-11T16:27:43.742Z,13.07
2022-09-11T16:30:43.282Z,12.43
2022-09-11T16:33:34.436Z,11.80
2022-09-11T16:36:21.597Z,10.30
2022-09-11T16:39:11.057Z,9.73
2022-09-11T16:41:58.042Z,9.10
2022-09-11T16:44:45.101Z,8.50
2022-09-11T16:47:32.619Z,8.37
2022-09-11T16:50:19.865Z,7.10
2022-09-11T16:53:06.956Z,9.57
2022-09-11T16:55:54.229Z,7.83
2022-09-11T16:58:45.242Z,5.63
2022-09-11T17:01:32.285Z,8.43
2022-09-11T17:04:19.231Z,6.50
2022-09-11T17:07:06.215Z,6.50
2022-09-11T17:09:53.148Z,7.00
2022-09-11T17:12:40.140Z,7.57
2022-09-11T17:15:28.545Z,7.70
2022-09-11T17:18:16.439Z,6.97
2022-09-11T17:21:06.023Z,7.00
2022-09-11T17:23:54.917Z,7.23
2022-09-11T17:26:42.393Z,7.97
2022-09-11T17:29:29.992Z,7.27
2022-09-11T17:32:29.318Z,7.93
2022-09-11T17:35:17.081Z,9.70
2022-09-11T17:38:04.109Z,8.13
2022-09-11T17:40:56.834Z,7.80
2022-09-11T17:43:44.422Z,7.50
2022-09-11T17:46:31.764Z,7.77
2022-09-11T17:49:18.873Z,8.00
2022-09-11T17:52:05.899Z,8.00
2022-09-11T17:54:53.303Z,8.63
2022-09-11T17:57:43.446Z,8.53
2022-09-11T18:00:30.586Z,10.03
2022-09-11T18:03:18.377Z,9.67
2022-09-11T18:06:23.010Z,10.20
2022-09-11T18:09:13.869Z,10.90
2022-09-11T18:12:03.186Z,11.00
2022-09-11T18:14:50.370Z,8.80
2022-09-11T18:17:38.359Z,9.30
2022-09-11T18:20:25.371Z,11.37
2022-09-11T18:23:12.729Z,8.30
2022-09-11T18:26:01.193Z,11.17
2022-09-11T18:28:49.741Z,11.40
2022-09-11T18:31:50.080Z,9.47
2022-09-11T18:34:37.456Z,10.23
2022-09-11T18:37:24.566Z,13.30
2022-09-11T18:40:11.610Z,10.93
2022-09-11T18:43:00.062Z,9.77
2022-09-11T18:45:47.205Z,10.63
2022-09-11T18:48:35.343Z,14.97
2022-09-11T18:51:22.406Z,11.43
2022-09-11T18:54:18.370Z,11.77
2022-09-11T18:57:05.377Z,12.33
2022-09-11T18:59:52.976Z,12.03
2022-09-11T19:02:39.925Z,11.60
2022-09-11T19:05:27.034Z,10.73
2022-09-11T19:08:14.132Z,11.07
2022-09-11T19:11:16.614Z,16.47
2022-09-11T19:14:06.532Z,12.73
2022-09-11T19:16:53.905Z,13.30
2022-09-11T19:19:41.550Z,12.17
2022-09-11T19:22:29.267Z,13.70
2022-09-11T19:25:16.279Z,12.60
2022-09-11T19:28:03.779Z,11.83
2022-09-11T19:31:00.591Z,13.30
2022-09-11T19:33:47.914Z,13.37
2022-09-11T19:36:36.119Z,15.53
2022-09-11T19:39:23.295Z,13.33
2022-09-11T19:42:10.259Z,15.93
2022-09-11T19:44:57.209Z,11.73
2022-09-11T19:47:44.132Z,16.70
2022-09-11T19:50:35.970Z,14.87
2022-09-11T19:53:24.287Z,15.63
2022-09-11T19:56:12.353Z,12.47
2022-09-11T19:59:00.293Z,14.73
2022-09-11T20:01:47.492Z,14.20
2022-09-11T20:04:34.526Z,13.67
2022-09-11T20:07:21.803Z,15.33
2022-09-11T20:10:09.889Z,18.80
2022-09-11T20:12:56.819Z,14.77
2022-09-11T20:15:43.937Z,15.60
2022-09-11T20:18:31.650Z,19.20
2022-09-11T20:21:18.955Z,18.80
2022-09-11T20:24:07.386Z,18.67
2022-09-11T20:26:54.917Z,18.33
2022-09-11T20:29:43.629Z,17.30
2022-09-11T20:32:31.129Z,18.57
2022-09-11T20:35:18.256Z,15.87
2022-09-11T20:38:05.340Z,24.07
2022-09-11T20:40:52.464Z,18.60
2022-09-11T20:43:40.265Z,21.53
2022-09-11T20:46:27.443Z,21.77
2022-09-11T20:49:15.300Z,18.03
2022-09-11T20:52:04.181Z,21.53
2022-09-11T20:54:52.383Z,22.17
2022-09-11T20:57:39.959Z,18.63
2022-09-11T21:00:27.505Z,19.83
2022-09-11T21:03:15.314Z,18.60
2022-09-11T21:06:09.752Z,22.43
2022-09-11T21:08:59.331Z,22.37
2022-09-11T21:11:47.765Z,18.30
2022-09-11T21:14:35.389Z,19.63
2022-09-11T21:17:22.722Z,20.47
2022-09-11T21:20:10.352Z,20.90
2022-09-11T21:22:57.782Z,21.50
2022-09-11T21:25:47.676Z,19.97
2022-09-11T21:28:37.496Z,22.00
2022-09-11T21:31:25.214Z,20.80
2022-09-11T21:34:12.429Z,24.60
2022-09-11T21:36:59.525Z,21.47
2022-09-11T21:39:46.689Z,21.37
2022-09-11T21:42:33.945Z,19.90
2022-09-11T21:45:21.182Z,16.97
2022-09-11T21:48:09.544Z,20.33
2022-09-11T21:50:56.717Z,21.73
2022-09-11T21:53:46.208Z,17.97
2022-09-11T21:56:33.867Z,22.53
2022-09-11T21:59:20.954Z,20.90
2022-09-11T22:02:09.314Z,22.53
2022-09-11T22:04:56.504Z,23.70
2022-09-11T22:07:43.840Z,22.50
2022-09-11T22:10:31.292Z,20.83
2022-09-11T22:13:19.215Z,22.03
2022-09-11T22:16:11.258Z,21.23
2022-09-11T22:18:58.343Z,19.77
2022-09-11T22:21:45.537Z,18.87
2022-09-11T22:24:32.651Z,22.77
2022-09-11T22:27:19.805Z,23.47
2022-09-11T22:30:07.759Z,22.67
2022-09-11T22:32:55.224Z,22.50
2022-09-11T22:35:42.991Z,23.30
2022-09-11T22:38:31.936Z,21.67
2022-09-11T22:41:19.775Z,22.60
2022-09-11T22:44:07.591Z,25.23
2022-09-11T22:46:54.765Z,22.00
2022-09-11T22:49:41.814Z,23.77
2022-09-11T22:52:28.847Z,23.63
2022-09-11T22:55:16.235Z,21.93
2022-09-11T22:58:03.289Z,20.63
2022-09-11T23:00:54.669Z,24.07
2022-09-11T23:03:41.916Z,22.40
2022-09-11T23:06:47.481Z,21.00
2022-09-11T23:09:34.556Z,25.83
2022-09-11T23:12:21.733Z,22.30
2022-09-11T23:15:10.772Z,21.93
2022-09-11T23:17:57.833Z,23.20
2022-09-11T23:20:44.994Z,20.07
2022-09-11T23:23:32.083Z,19.73
2022-09-11T23:26:19.672Z,20.43
2022-09-11T23:29:06.908Z,20.40
2022-09-11T23:31:56.723Z,18.03
2022-09-11T23:34:43.725Z,19.00
2022-09-11T23:37:30.715Z,17.60
2022-09-11T23:40:17.826Z,23.00
2022-09-11T23:43:04.864Z,19.83
2022-09-11T23:45:51.894Z,22.50
2022-09-11T23:48:39.213Z,20.40
2022-09-11T23:51:27.030Z,21.63
2022-09-11T23:54:13.962Z,20.03
2022-09-11T23:57:01.018Z,20.47
2022-09-11T23:59:47.966Z,18.63
